Terminal Aerodrome Forecast
Issued by NWS Birmingham, AL

Home | Current Version | Previous Version | Text Only | Print | Product List | Glossary On
Versions: 1 2 3 4 5 6 7 8 9 10 11 12 13 14 15
719
FTUS44 KBMX 271845 AAA
TAFBHM
TAF AMD
KBHM 271845Z 2719/2818 13006G12KT P6SM SHRA OVC080
     FM272100 09006KT P6SM OVC007
     FM280600 15009KT 4SM SHRA OVC007
     FM280900 15008KT 4SM RA OVC010
     FM281500 16006KT P6SM VCSH OVC007=

USA.gov is the U.S. government's official web portal to all federal, state and local government web resources and services.